sensor_id;sensor_type;location;lat;lon;timestamp;pressure;altitude;pressure_sealevel;temperature;humidity
53647;BME280;39550;52.230;5.194;2024-02-23T00:00:08;98456.81;;;7.44;98.09
53647;BME280;39550;52.230;5.194;2024-02-23T00:02:36;98454.31;;;7.41;98.61
53647;BME280;39550;52.230;5.194;2024-02-23T00:05:02;98475.63;;;7.42;97.92
53647;BME280;39550;52.230;5.194;2024-02-23T00:07:27;98473.03;;;7.43;98.31
53647;BME280;39550;52.230;5.194;2024-02-23T00:09:52;98470.47;;;7.43;98.02
53647;BME280;39550;52.230;5.194;2024-02-23T00:12:18;98473.94;;;7.42;98.16
53647;BME280;39550;52.230;5.194;2024-02-23T00:14:43;98490.97;;;7.43;98.29
53647;BME280;39550;52.230;5.194;2024-02-23T00:17:08;98494.44;;;7.42;98.66
53647;BME280;39550;52.230;5.194;2024-02-23T00:19:34;98499.56;;;7.42;98.97
53647;BME280;39550;52.230;5.194;2024-02-23T00:21:59;98495.31;;;7.41;99.01
53647;BME280;39550;52.230;5.194;2024-02-23T00:24:25;98505.56;;;7.41;98.28
53647;BME280;39550;52.230;5.194;2024-02-23T00:26:50;98497.03;;;7.41;98.08
53647;BME280;39550;52.230;5.194;2024-02-23T00:29:16;98505.56;;;7.41;98.86
53647;BME280;39550;52.230;5.194;2024-02-23T00:31:42;98503.88;;;7.39;98.72
53647;BME280;39550;52.230;5.194;2024-02-23T00:34:08;98506.53;;;7.34;98.88
53647;BME280;39550;52.230;5.194;2024-02-23T00:36:39;98500.50;;;7.37;98.30
53647;BME280;39550;52.230;5.194;2024-02-23T00:39:04;98499.66;;;7.36;98.79
53647;BME280;39550;52.230;5.194;2024-02-23T00:41:30;98506.50;;;7.36;98.87
53647;BME280;39550;52.230;5.194;2024-02-23T00:43:55;98503.06;;;7.35;98.55
53647;BME280;39550;52.230;5.194;2024-02-23T00:46:20;98519.34;;;7.34;98.14
53647;BME280;39550;52.230;5.194;2024-02-23T00:48:46;98516.78;;;7.34;97.79
53647;BME280;39550;52.230;5.194;2024-02-23T00:51:11;98522.75;;;7.33;98.28
53647;BME280;39550;52.230;5.194;2024-02-23T00:53:36;98507.56;;;7.22;97.48
53647;BME280;39550;52.230;5.194;2024-02-23T00:56:01;98529.63;;;7.32;98.06
53647;BME280;39550;52.230;5.194;2024-02-23T00:58:27;98530.44;;;7.33;98.86
53647;BME280;39550;52.230;5.194;2024-02-23T01:00:52;98539.00;;;7.32;98.37
53647;BME280;39550;52.230;5.194;2024-02-23T01:03:17;98537.31;;;7.32;98.37
53647;BME280;39550;52.230;5.194;2024-02-23T01:05:43;98539.88;;;7.29;98.76
53647;BME280;39550;52.230;5.194;2024-02-23T01:08:08;98549.25;;;7.32;98.91
53647;BME280;39550;52.230;5.194;2024-02-23T01:10:34;98545.84;;;7.31;98.55
53647;BME280;39550;52.230;5.194;2024-02-23T01:12:59;98553.56;;;7.30;99.04
53647;BME280;39550;52.230;5.194;2024-02-23T01:15:24;98555.25;;;7.32;98.91
53647;BME280;39550;52.230;5.194;2024-02-23T01:17:49;98560.34;;;7.31;98.42
53647;BME280;39550;52.230;5.194;2024-02-23T01:20:15;98564.63;;;7.32;98.68
53647;BME280;39550;52.230;5.194;2024-02-23T01:22:40;98572.34;;;7.30;98.79
53647;BME280;39550;52.230;5.194;2024-02-23T01:25:06;98567.22;;;7.30;98.94
53647;BME280;39550;52.230;5.194;2024-02-23T01:27:31;98579.19;;;7.30;98.64
53647;BME280;39550;52.230;5.194;2024-02-23T01:29:56;98581.75;;;7.30;98.64
53647;BME280;39550;52.230;5.194;2024-02-23T01:32:22;98592.00;;;7.27;98.59
53647;BME280;39550;52.230;5.194;2024-02-23T01:34:47;98598.84;;;7.28;98.80
53647;BME280;39550;52.230;5.194;2024-02-23T01:37:13;98599.69;;;7.27;98.43
53647;BME280;39550;52.230;5.194;2024-02-23T01:39:38;98604.81;;;7.27;98.63
53647;BME280;39550;52.230;5.194;2024-02-23T01:42:04;98603.19;;;7.24;98.37
53647;BME280;39550;52.230;5.194;2024-02-23T01:44:29;98611.72;;;7.23;98.63
53647;BME280;39550;52.230;5.194;2024-02-23T01:46:54;98614.25;;;7.25;98.83
53647;BME280;39550;52.230;5.194;2024-02-23T01:49:20;98604.00;;;7.25;98.86
53647;BME280;39550;52.230;5.194;2024-02-23T01:51:47;98618.56;;;7.23;98.79
53647;BME280;39550;52.230;5.194;2024-02-23T01:54:13;98611.75;;;7.22;98.04
53647;BME280;39550;52.230;5.194;2024-02-23T01:56:38;98612.63;;;7.21;98.04
53647;BME280;39550;52.230;5.194;2024-02-23T01:59:06;98613.44;;;7.21;98.21
53647;BME280;39550;52.230;5.194;2024-02-23T02:01:31;98629.69;;;7.22;99.10
53647;BME280;39550;52.230;5.194;2024-02-23T02:03:58;98621.16;;;7.20;98.17
53647;BME280;39550;52.230;5.194;2024-02-23T02:06:24;98622.91;;;7.18;98.16
53647;BME280;39550;52.230;5.194;2024-02-23T02:08:49;98626.34;;;7.16;98.49
53647;BME280;39550;52.230;5.194;2024-02-23T02:11:15;98634.00;;;7.16;97.50
53647;BME280;39550;52.230;5.194;2024-02-23T02:13:40;98646.81;;;7.16;98.70
53647;BME280;39550;52.230;5.194;2024-02-23T02:16:06;98639.16;;;7.15;98.37
53647;BME280;39550;52.230;5.194;2024-02-23T02:18:31;98638.31;;;7.14;97.71
53647;BME280;39550;52.230;5.194;2024-02-23T02:20:57;98638.31;;;7.14;98.13
53647;BME280;39550;52.230;5.194;2024-02-23T02:23:23;98627.25;;;7.12;98.50
53647;BME280;39550;52.230;5.194;2024-02-23T02:25:56;98641.75;;;7.13;98.88
53647;BME280;39550;52.230;5.194;2024-02-23T02:28:23;98641.75;;;7.13;98.22
53647;BME280;39550;52.230;5.194;2024-02-23T02:30:49;98646.88;;;7.13;98.02
53647;BME280;39550;52.230;5.194;2024-02-23T02:33:15;98645.16;;;7.12;98.58
53647;BME280;39550;52.230;5.194;2024-02-23T02:35:40;98648.56;;;7.13;98.61
53647;BME280;39550;52.230;5.194;2024-02-23T02:38:05;98652.00;;;7.13;99.26
53647;BME280;39550;52.230;5.194;2024-02-23T02:40:31;98646.88;;;7.13;99.17
53647;BME280;39550;52.230;5.194;2024-02-23T02:42:57;98646.88;;;7.13;99.68
53647;BME280;39550;52.230;5.194;2024-02-23T02:45:22;98655.41;;;7.12;99.03
53647;BME280;39550;52.230;5.194;2024-02-23T02:47:48;98655.41;;;7.12;99.51
53647;BME280;39550;52.230;5.194;2024-02-23T02:50:13;98657.16;;;7.10;99.23
53647;BME280;39550;52.230;5.194;2024-02-23T02:52:38;98663.97;;;7.11;99.31
53647;BME280;39550;52.230;5.194;2024-02-23T02:55:04;98661.41;;;7.11;100.00
53647;BME280;39550;52.230;5.194;2024-02-23T02:57:29;98662.28;;;7.10;100.00
53647;BME280;39550;52.230;5.194;2024-02-23T02:59:55;98660.59;;;7.09;99.91
53647;BME280;39550;52.230;5.194;2024-02-23T03:02:20;98660.59;;;7.09;99.92
53647;BME280;39550;52.230;5.194;2024-02-23T03:04:49;98674.25;;;7.08;99.44
53647;BME280;39550;52.230;5.194;2024-02-23T03:07:15;98669.13;;;7.08;99.51
53647;BME280;39550;52.230;5.194;2024-02-23T03:09:41;98682.78;;;7.07;99.82
53647;BME280;39550;52.230;5.194;2024-02-23T03:12:06;98675.13;;;7.06;99.34
53647;BME280;39550;52.230;5.194;2024-02-23T03:14:31;98676.84;;;7.05;99.62
53647;BME280;39550;52.230;5.194;2024-02-23T03:16:58;98663.19;;;7.05;99.54
53647;BME280;39550;52.230;5.194;2024-02-23T03:19:23;98681.09;;;7.05;99.31
53647;BME280;39550;52.230;5.194;2024-02-23T03:21:49;98663.22;;;7.02;100.00
53647;BME280;39550;52.230;5.194;2024-02-23T03:24:14;98674.34;;;6.99;99.18
53647;BME280;39550;52.230;5.194;2024-02-23T03:26:40;98678.56;;;7.03;99.44
53647;BME280;39550;52.230;5.194;2024-02-23T03:29:05;98688.81;;;7.03;99.79
53647;BME280;39550;52.230;5.194;2024-02-23T03:31:30;98695.63;;;7.04;99.24
53647;BME280;39550;52.230;5.194;2024-02-23T03:33:56;98693.09;;;7.04;99.16
53647;BME280;39550;52.230;5.194;2024-02-23T03:36:21;98689.66;;;7.05;99.12
53647;BME280;39550;52.230;5.194;2024-02-23T03:38:47;98694.75;;;7.08;99.62
53647;BME280;39550;52.230;5.194;2024-02-23T03:41:12;98698.09;;;7.13;99.04
53647;BME280;39550;52.230;5.194;2024-02-23T03:43:37;98703.28;;;7.07;98.56
53647;BME280;39550;52.230;5.194;2024-02-23T03:46:03;98706.69;;;7.09;98.89
53647;BME280;39550;52.230;5.194;2024-02-23T03:48:28;98699.91;;;7.05;98.80
53647;BME280;39550;52.230;5.194;2024-02-23T03:50:54;98697.34;;;7.05;98.77
53647;BME280;39550;52.230;5.194;2024-02-23T03:53:19;98693.03;;;7.07;98.82
53647;BME280;39550;52.230;5.194;2024-02-23T03:55:44;98694.78;;;7.05;98.46
53647;BME280;39550;52.230;5.194;2024-02-23T03:58:10;98710.09;;;7.08;98.60
53647;BME280;39550;52.230;5.194;2024-02-23T04:00:35;98709.25;;;7.08;98.57
53647;BME280;39550;52.230;5.194;2024-02-23T04:03:00;98711.88;;;7.03;98.56
53647;BME280;39550;52.230;5.194;2024-02-23T04:05:26;98705.94;;;6.99;98.69
53647;BME280;39550;52.230;5.194;2024-02-23T04:07:51;98705.09;;;6.99;98.71
53647;BME280;39550;52.230;5.194;2024-02-23T04:10:16;98711.06;;;6.99;99.55
53647;BME280;39550;52.230;5.194;2024-02-23T04:12:46;98718.78;;;6.98;99.27
53647;BME280;39550;52.230;5.194;2024-02-23T04:15:11;98718.84;;;6.92;98.28
53647;BME280;39550;52.230;5.194;2024-02-23T04:17:37;98717.13;;;6.94;98.62
53647;BME280;39550;52.230;5.194;2024-02-23T04:20:06;98728.16;;;6.97;98.72
53647;BME280;39550;52.230;5.194;2024-02-23T04:22:32;98728.16;;;7.01;98.86
53647;BME280;39550;52.230;5.194;2024-02-23T04:24:57;98734.97;;;6.98;98.59
53647;BME280;39550;52.230;5.194;2024-02-23T04:27:23;98735.00;;;6.97;98.33
53647;BME280;39550;52.230;5.194;2024-02-23T04:29:48;98743.56;;;6.94;98.80
53647;BME280;39550;52.230;5.194;2024-02-23T04:32:13;98741.84;;;6.93;98.91
53647;BME280;39550;52.230;5.194;2024-02-23T04:34:39;98741.03;;;6.93;98.66
53647;BME280;39550;52.230;5.194;2024-02-23T04:37:05;98747.00;;;6.92;98.29
53647;BME280;39550;52.230;5.194;2024-02-23T04:39:30;98749.56;;;6.92;98.84
53647;BME280;39550;52.230;5.194;2024-02-23T04:41:56;98746.19;;;6.90;99.91
53647;BME280;39550;52.230;5.194;2024-02-23T04:44:22;98756.41;;;6.90;98.82
53647;BME280;39550;52.230;5.194;2024-02-23T04:46:47;98754.72;;;6.89;98.31
53647;BME280;39550;52.230;5.194;2024-02-23T04:49:13;98745.41;;;6.81;98.48
53647;BME280;39550;52.230;5.194;2024-02-23T04:51:39;98757.28;;;6.89;98.93
53647;BME280;39550;52.230;5.194;2024-02-23T04:54:04;98759.84;;;6.89;99.44
53647;BME280;39550;52.230;5.194;2024-02-23T04:56:29;98755.56;;;6.88;98.93
53647;BME280;39550;52.230;5.194;2024-02-23T04:58:54;98730.06;;;6.80;99.42
53647;BME280;39550;52.230;5.194;2024-02-23T05:01:20;98744.53;;;6.86;98.46
53647;BME280;39550;52.230;5.194;2024-02-23T05:03:45;98757.34;;;6.84;98.38
53647;BME280;39550;52.230;5.194;2024-02-23T05:06:10;98748.78;;;6.85;99.47
53647;BME280;39550;52.230;5.194;2024-02-23T05:08:36;98743.66;;;6.84;98.86
53647;BME280;39550;52.230;5.194;2024-02-23T05:11:01;98744.53;;;6.81;98.96
53647;BME280;39550;52.230;5.194;2024-02-23T05:13:26;98748.84;;;6.80;98.76
53647;BME280;39550;52.230;5.194;2024-02-23T05:15:55;98746.28;;;6.80;99.34
53647;BME280;39550;52.230;5.194;2024-02-23T05:18:20;98753.09;;;6.81;99.10
53647;BME280;39550;52.230;5.194;2024-02-23T05:20:46;98747.09;;;6.81;98.82
53647;BME280;39550;52.230;5.194;2024-02-23T05:23:11;98750.56;;;6.80;98.84
53647;BME280;39550;52.230;5.194;2024-02-23T05:25:36;98746.28;;;6.79;98.41
53647;BME280;39550;52.230;5.194;2024-02-23T05:28:02;98753.13;;;6.78;99.17
53647;BME280;39550;52.230;5.194;2024-02-23T05:30:27;98744.56;;;6.79;99.72
53647;BME280;39550;52.230;5.194;2024-02-23T05:32:56;98747.13;;;6.79;99.36
53647;BME280;39550;52.230;5.194;2024-02-23T05:35:22;98753.13;;;6.78;98.77
53647;BME280;39550;52.230;5.194;2024-02-23T05:37:47;98758.25;;;6.78;98.54
53647;BME280;39550;52.230;5.194;2024-02-23T05:40:14;98755.69;;;6.78;99.67
53647;BME280;39550;52.230;5.194;2024-02-23T05:42:40;98755.69;;;6.77;99.77
53647;BME280;39550;52.230;5.194;2024-02-23T05:45:08;98748.06;;;6.72;99.11
53647;BME280;39550;52.230;5.194;2024-02-23T05:47:38;98750.59;;;6.75;98.31
53647;BME280;39550;52.230;5.194;2024-02-23T05:50:04;98753.16;;;6.75;98.90
53647;BME280;39550;52.230;5.194;2024-02-23T05:52:32;98758.25;;;6.75;99.07
53647;BME280;39550;52.230;5.194;2024-02-23T05:54:58;98754.03;;;6.73;98.50
53647;BME280;39550;52.230;5.194;2024-02-23T05:57:27;98757.44;;;6.73;98.62
53647;BME280;39550;52.230;5.194;2024-02-23T05:59:53;98745.47;;;6.74;99.22
53647;BME280;39550;52.230;5.194;2024-02-23T06:02:18;98737.88;;;6.69;99.84
53647;BME280;39550;52.230;5.194;2024-02-23T06:04:44;98738.66;;;6.73;99.13
53647;BME280;39550;52.230;5.194;2024-02-23T06:07:10;98750.63;;;6.72;99.15
53647;BME280;39550;52.230;5.194;2024-02-23T06:09:35;98750.63;;;6.72;99.70
53647;BME280;39550;52.230;5.194;2024-02-23T06:12:00;98752.34;;;6.72;100.00
53647;BME280;39550;52.230;5.194;2024-02-23T06:14:26;98748.91;;;6.71;99.39
53647;BME280;39550;52.230;5.194;2024-02-23T06:16:51;98754.94;;;6.70;99.82
53647;BME280;39550;52.230;5.194;2024-02-23T06:19:16;98749.81;;;6.70;99.44
53647;BME280;39550;52.230;5.194;2024-02-23T06:21:42;98760.03;;;6.70;99.56
53647;BME280;39550;52.230;5.194;2024-02-23T06:24:07;98760.03;;;6.70;99.80
53647;BME280;39550;52.230;5.194;2024-02-23T06:26:34;98761.75;;;6.68;99.67
53647;BME280;39550;52.230;5.194;2024-02-23T06:28:59;98775.41;;;6.67;99.33
53647;BME280;39550;52.230;5.194;2024-02-23T06:31:24;98767.72;;;6.69;99.15
53647;BME280;39550;52.230;5.194;2024-02-23T06:33:50;98772.00;;;6.68;99.49
53647;BME280;39550;52.230;5.194;2024-02-23T06:36:17;98772.00;;;6.68;99.70
53647;BME280;39550;52.230;5.194;2024-02-23T06:38:46;98777.09;;;6.68;99.42
53647;BME280;39550;52.230;5.194;2024-02-23T06:41:11;98765.16;;;6.67;99.92
53647;BME280;39550;52.230;5.194;2024-02-23T06:43:37;98782.25;;;6.67;99.20
53647;BME280;39550;52.230;5.194;2024-02-23T06:46:09;98772.91;;;6.61;96.67
53647;BME280;39550;52.230;5.194;2024-02-23T06:48:35;98759.31;;;6.54;96.71
53647;BME280;39550;52.230;5.194;2024-02-23T06:51:00;98765.28;;;6.58;97.91
53647;BME280;39550;52.230;5.194;2024-02-23T06:53:26;98765.28;;;6.58;97.83
53647;BME280;39550;52.230;5.194;2024-02-23T06:55:51;98774.63;;;6.59;98.88
53647;BME280;39550;52.230;5.194;2024-02-23T06:58:16;98761.84;;;6.59;98.25
53647;BME280;39550;52.230;5.194;2024-02-23T07:00:43;98773.78;;;6.60;98.15
53647;BME280;39550;52.230;5.194;2024-02-23T07:03:09;98773.78;;;6.60;98.29
53647;BME280;39550;52.230;5.194;2024-02-23T07:05:34;98771.22;;;6.60;98.29
53647;BME280;39550;52.230;5.194;2024-02-23T07:08:01;98772.06;;;6.59;98.96
53647;BME280;39550;52.230;5.194;2024-02-23T07:10:26;98778.91;;;6.60;99.10
53647;BME280;39550;52.230;5.194;2024-02-23T07:12:51;98771.22;;;6.58;98.68
53647;BME280;39550;52.230;5.194;2024-02-23T07:15:19;98775.50;;;6.58;98.55
53647;BME280;39550;52.230;5.194;2024-02-23T07:17:45;98768.69;;;6.57;98.39
53647;BME280;39550;52.230;5.194;2024-02-23T07:20:10;98768.69;;;6.57;98.98
53647;BME280;39550;52.230;5.194;2024-02-23T07:22:36;98772.09;;;6.56;98.23
53647;BME280;39550;52.230;5.194;2024-02-23T07:25:01;98786.66;;;6.49;96.17
53647;BME280;39550;52.230;5.194;2024-02-23T07:27:29;98772.19;;;6.46;97.35
53647;BME280;39550;52.230;5.194;2024-02-23T07:29:55;98785.81;;;6.48;97.37
53647;BME280;39550;52.230;5.194;2024-02-23T07:32:21;98774.72;;;6.50;97.80
53647;BME280;39550;52.230;5.194;2024-02-23T07:34:46;98779.84;;;6.50;98.34
53647;BME280;39550;52.230;5.194;2024-02-23T07:37:11;98773.88;;;6.47;98.00
53647;BME280;39550;52.230;5.194;2024-02-23T07:39:37;98763.63;;;6.51;97.81
53647;BME280;39550;52.230;5.194;2024-02-23T07:42:03;98761.97;;;6.48;98.22
53647;BME280;39550;52.230;5.194;2024-02-23T07:44:28;98767.91;;;6.48;97.67
53647;BME280;39550;52.230;5.194;2024-02-23T07:46:53;98764.50;;;6.48;98.41
53647;BME280;39550;52.230;5.194;2024-02-23T07:49:20;98754.28;;;6.46;98.63
53647;BME280;39550;52.230;5.194;2024-02-23T07:51:47;98755.94;;;6.49;97.91
53647;BME280;39550;52.230;5.194;2024-02-23T07:54:12;98748.28;;;6.47;98.23
53647;BME280;39550;52.230;5.194;2024-02-23T07:56:38;98744.88;;;6.48;98.64
53647;BME280;39550;52.230;5.194;2024-02-23T07:59:03;98740.59;;;6.49;98.39
53647;BME280;39550;52.230;5.194;2024-02-23T08:01:28;98737.22;;;6.48;98.00
53647;BME280;39550;52.230;5.194;2024-02-23T08:03:54;98725.28;;;6.47;98.89
53647;BME280;39550;52.230;5.194;2024-02-23T08:06:19;98740.63;;;6.47;99.05
53647;BME280;39550;52.230;5.194;2024-02-23T08:08:45;98738.06;;;6.47;98.32
53647;BME280;39550;52.230;5.194;2024-02-23T08:11:10;98735.50;;;6.47;98.27
53647;BME280;39550;52.230;5.194;2024-02-23T08:13:36;98732.91;;;6.51;98.29
53647;BME280;39550;52.230;5.194;2024-02-23T08:16:04;98738.03;;;6.51;98.17
53647;BME280;39550;52.230;5.194;2024-02-23T08:18:29;98732.91;;;6.51;98.37
53647;BME280;39550;52.230;5.194;2024-02-23T08:20:54;98737.22;;;6.48;98.21
53647;BME280;39550;52.230;5.194;2024-02-23T08:23:20;98735.53;;;6.46;97.97
53647;BME280;39550;52.230;5.194;2024-02-23T08:25:46;98733.78;;;6.50;98.24
53647;BME280;39550;52.230;5.194;2024-02-23T08:28:11;98744.88;;;6.48;98.08
53647;BME280;39550;52.230;5.194;2024-02-23T08:30:37;98741.50;;;6.48;98.28
53647;BME280;39550;52.230;5.194;2024-02-23T08:33:02;98731.22;;;6.50;98.51
53647;BME280;39550;52.230;5.194;2024-02-23T08:35:27;98727.81;;;6.47;98.68
53647;BME280;39550;52.230;5.194;2024-02-23T08:37:53;98726.16;;;6.43;98.09
53647;BME280;39550;52.230;5.194;2024-02-23T08:40:19;98726.16;;;6.43;98.05
53647;BME280;39550;52.230;5.194;2024-02-23T08:42:44;98723.59;;;6.43;97.88
53647;BME280;39550;52.230;5.194;2024-02-23T08:45:09;98722.72;;;6.47;98.11
53647;BME280;39550;52.230;5.194;2024-02-23T08:47:37;98719.34;;;6.45;98.31
53647;BME280;39550;52.230;5.194;2024-02-23T08:50:03;98729.56;;;6.42;98.07
53647;BME280;39550;52.230;5.194;2024-02-23T08:52:29;98735.56;;;6.43;98.56
53647;BME280;39550;52.230;5.194;2024-02-23T08:54:55;98726.16;;;6.43;98.13
53647;BME280;39550;52.230;5.194;2024-02-23T08:57:20;98726.13;;;6.46;98.24
53647;BME280;39550;52.230;5.194;2024-02-23T08:59:48;98726.16;;;6.43;97.69
53647;BME280;39550;52.230;5.194;2024-02-23T09:02:13;98719.34;;;6.45;98.02
53647;BME280;39550;52.230;5.194;2024-02-23T09:04:39;98725.34;;;6.41;98.53
53647;BME280;39550;52.230;5.194;2024-02-23T09:07:05;98706.66;;;6.33;98.08
53647;BME280;39550;52.230;5.194;2024-02-23T09:09:30;98728.72;;;6.43;98.52
53647;BME280;39550;52.230;5.194;2024-02-23T09:11:56;98724.47;;;6.42;98.39
53647;BME280;39550;52.230;5.194;2024-02-23T09:14:21;98729.59;;;6.39;97.99
53647;BME280;39550;52.230;5.194;2024-02-23T09:16:46;98730.47;;;6.38;98.88
53647;BME280;39550;52.230;5.194;2024-02-23T09:19:16;98739.84;;;6.39;98.00
53647;BME280;39550;52.230;5.194;2024-02-23T09:21:41;98743.25;;;6.38;98.49
53647;BME280;39550;52.230;5.194;2024-02-23T09:24:06;98737.34;;;6.35;98.15
53647;BME280;39550;52.230;5.194;2024-02-23T09:26:32;98739.91;;;6.35;98.22
53647;BME280;39550;52.230;5.194;2024-02-23T09:28:57;98729.66;;;6.36;98.28
53647;BME280;39550;52.230;5.194;2024-02-23T09:31:22;98743.28;;;6.35;98.60
53647;BME280;39550;52.230;5.194;2024-02-23T09:33:47;98750.16;;;6.33;97.87
53647;BME280;39550;52.230;5.194;2024-02-23T09:36:15;98745.00;;;6.36;98.59
53647;BME280;39550;52.230;5.194;2024-02-23T09:38:41;98743.28;;;6.35;98.09
53647;BME280;39550;52.230;5.194;2024-02-23T09:41:13;98739.06;;;6.34;98.80
53647;BME280;39550;52.230;5.194;2024-02-23T09:43:42;98732.28;;;6.27;98.52
53647;BME280;39550;52.230;5.194;2024-02-23T09:46:10;98739.91;;;6.33;98.47
53647;BME280;39550;52.230;5.194;2024-02-23T09:48:35;98743.28;;;6.35;98.95
53647;BME280;39550;52.230;5.194;2024-02-23T09:51:02;98752.69;;;6.35;99.00
53647;BME280;39550;52.230;5.194;2024-02-23T09:53:29;98739.06;;;6.34;98.24
53647;BME280;39550;52.230;5.194;2024-02-23T09:55:57;98748.41;;;6.34;99.11
53647;BME280;39550;52.230;5.194;2024-02-23T09:58:25;98745.81;;;6.37;98.09
53647;BME280;39550;52.230;5.194;2024-02-23T10:00:52;98756.06;;;6.37;98.90
53647;BME280;39550;52.230;5.194;2024-02-23T10:03:17;98762.91;;;6.36;98.03
53647;BME280;39550;52.230;5.194;2024-02-23T10:05:43;98761.19;;;6.35;98.39
53647;BME280;39550;52.230;5.194;2024-02-23T10:08:09;98764.63;;;6.34;97.78
53647;BME280;39550;52.230;5.194;2024-02-23T10:10:35;98766.34;;;6.34;98.45
53647;BME280;39550;52.230;5.194;2024-02-23T10:13:01;98766.31;;;6.35;98.52
53647;BME280;39550;52.230;5.194;2024-02-23T10:15:29;98769.75;;;6.36;99.01
53647;BME280;39550;52.230;5.194;2024-02-23T10:17:54;98768.03;;;6.35;98.92
53647;BME280;39550;52.230;5.194;2024-02-23T10:20:20;98762.09;;;6.34;98.30
53647;BME280;39550;52.230;5.194;2024-02-23T10:22:45;98770.59;;;6.33;98.49
53647;BME280;39550;52.230;5.194;2024-02-23T10:25:11;98762.94;;;6.33;98.50
53647;BME280;39550;52.230;5.194;2024-02-23T10:27:37;98778.28;;;6.33;98.61
53647;BME280;39550;52.230;5.194;2024-02-23T10:30:02;98773.16;;;6.33;98.19
53647;BME280;39550;52.230;5.194;2024-02-23T10:32:29;98774.84;;;6.33;98.87
53647;BME280;39550;52.230;5.194;2024-02-23T10:35:00;98784.25;;;6.32;98.09
53647;BME280;39550;52.230;5.194;2024-02-23T10:37:26;98781.69;;;6.32;98.35
53647;BME280;39550;52.230;5.194;2024-02-23T10:39:57;98790.22;;;6.31;98.48
53647;BME280;39550;52.230;5.194;2024-02-23T10:42:24;98798.75;;;6.32;98.15
53647;BME280;39550;52.230;5.194;2024-02-23T10:44:51;98777.44;;;6.31;98.30
53647;BME280;39550;52.230;5.194;2024-02-23T10:47:19;98789.38;;;6.32;98.00
53647;BME280;39550;52.230;5.194;2024-02-23T10:49:46;98796.19;;;6.33;98.04
53647;BME280;39550;52.230;5.194;2024-02-23T10:52:12;98796.97;;;6.43;97.73
53647;BME280;39550;52.230;5.194;2024-02-23T10:54:39;98794.41;;;6.41;98.00
53647;BME280;39550;52.230;5.194;2024-02-23T10:57:05;98808.91;;;6.39;98.05
53647;BME280;39550;52.230;5.194;2024-02-23T10:59:31;98804.66;;;6.38;97.63
53647;BME280;39550;52.230;5.194;2024-02-23T11:01:57;98814.88;;;6.38;98.63
53647;BME280;39550;52.230;5.194;2024-02-23T11:04:25;98819.19;;;6.36;97.70
53647;BME280;39550;52.230;5.194;2024-02-23T11:06:52;98811.50;;;6.38;97.27
53647;BME280;39550;52.230;5.194;2024-02-23T11:09:23;98812.34;;;6.37;97.94
53647;BME280;39550;52.230;5.194;2024-02-23T11:11:59;98816.63;;;6.36;98.10
53647;BME280;39550;52.230;5.194;2024-02-23T11:14:34;98814.06;;;6.36;98.64
53647;BME280;39550;52.230;5.194;2024-02-23T11:17:00;98808.09;;;6.37;97.45
53647;BME280;39550;52.230;5.194;2024-02-23T11:19:33;98825.13;;;6.38;97.56
53647;BME280;39550;52.230;5.194;2024-02-23T11:21:59;98822.56;;;6.40;97.94
53647;BME280;39550;52.230;5.194;2024-02-23T11:24:28;98813.19;;;6.39;98.31
53647;BME280;39550;52.230;5.194;2024-02-23T11:27:00;98811.47;;;6.39;97.49
53647;BME280;39550;52.230;5.194;2024-02-23T11:29:33;98820.00;;;6.38;98.41
53647;BME280;39550;52.230;5.194;2024-02-23T11:32:00;98824.25;;;6.41;97.80
53647;BME280;39550;52.230;5.194;2024-02-23T11:34:27;98821.75;;;6.36;97.80
53647;BME280;39550;52.230;5.194;2024-02-23T11:36:52;98825.16;;;6.34;95.21
53647;BME280;39550;52.230;5.194;2024-02-23T11:39:22;98815.00;;;6.26;95.06
53647;BME280;39550;52.230;5.194;2024-02-23T11:41:50;98818.34;;;6.34;96.55
53647;BME280;39550;52.230;5.194;2024-02-23T11:44:16;98825.16;;;6.35;96.53
53647;BME280;39550;52.230;5.194;2024-02-23T11:46:46;98842.19;;;6.36;96.61
53647;BME280;39550;52.230;5.194;2024-02-23T11:49:12;98837.09;;;6.36;97.08
53647;BME280;39550;52.230;5.194;2024-02-23T11:51:37;98849.88;;;6.36;97.36
53647;BME280;39550;52.230;5.194;2024-02-23T11:54:02;98842.19;;;6.36;96.80
53647;BME280;39550;52.230;5.194;2024-02-23T11:56:29;98838.81;;;6.31;96.88
53647;BME280;39550;52.230;5.194;2024-02-23T11:58:56;98843.94;;;6.34;97.51
53647;BME280;39550;52.230;5.194;2024-02-23T12:01:22;98848.19;;;6.32;97.41
53647;BME280;39550;52.230;5.194;2024-02-23T12:03:48;98847.34;;;6.33;97.70
53647;BME280;39550;52.230;5.194;2024-02-23T12:06:14;98835.44;;;6.29;97.50
53647;BME280;39550;52.230;5.194;2024-02-23T12:08:41;98834.56;;;6.32;97.51
53647;BME280;39550;52.230;5.194;2024-02-23T12:11:07;98851.59;;;6.36;97.62
53647;BME280;39550;52.230;5.194;2024-02-23T12:13:34;98849.03;;;6.37;97.77
53647;BME280;39550;52.230;5.194;2024-02-23T12:16:00;98859.25;;;6.37;97.88
53647;BME280;39550;52.230;5.194;2024-02-23T12:18:26;98849.03;;;6.37;97.35
53647;BME280;39550;52.230;5.194;2024-02-23T12:20:58;98854.13;;;6.37;97.52
53647;BME280;39550;52.230;5.194;2024-02-23T12:23:23;98854.13;;;6.37;97.71
53647;BME280;39550;52.230;5.194;2024-02-23T12:26:14;98839.63;;;6.38;97.46
53647;BME280;39550;52.230;5.194;2024-02-23T12:28:39;98848.16;;;6.38;97.98
53647;BME280;39550;52.230;5.194;2024-02-23T12:31:05;98866.06;;;6.38;97.53
53647;BME280;39550;52.230;5.194;2024-02-23T12:33:32;98873.75;;;6.37;97.60
53647;BME280;39550;52.230;5.194;2024-02-23T12:36:01;98869.50;;;6.37;97.55
53647;BME280;39550;52.230;5.194;2024-02-23T12:38:27;98866.06;;;6.35;97.40
53647;BME280;39550;52.230;5.194;2024-02-23T12:40:53;98873.75;;;6.40;97.12
53647;BME280;39550;52.230;5.194;2024-02-23T12:43:18;98867.75;;;6.41;98.17
53647;BME280;39550;52.230;5.194;2024-02-23T12:45:55;98876.28;;;6.41;96.99
53647;BME280;39550;52.230;5.194;2024-02-23T12:48:22;98871.19;;;6.37;98.14
53647;BME280;39550;52.230;5.194;2024-02-23T12:50:48;98870.31;;;6.41;97.52
53647;BME280;39550;52.230;5.194;2024-02-23T12:53:36;98868.63;;;6.41;98.03
53647;BME280;39550;52.230;5.194;2024-02-23T12:56:10;98874.56;;;6.42;97.79
53647;BME280;39550;52.230;5.194;2024-02-23T12:58:42;98884.78;;;6.42;97.72
53647;BME280;39550;52.230;5.194;2024-02-23T13:01:08;98887.34;;;6.45;98.07
53647;BME280;39550;52.230;5.194;2024-02-23T13:03:35;98885.63;;;6.45;97.49